Latest  Newer  Older  Last 2 hours slideshow  Last 24 hours slideshow  Refresh every 5 minutes 
Current image  Latest image  Rain/snow radar  Cloud coverage sat images 

All time is UTC (add 2 hours to UTC in wintertime, 3 hours to UTC in DST for Latvia local time)

2019/12/16 07:20 EVRA 160720Z 25009G20KT 210V300 9999 SCT016CB OVC025 05/02 Q0999 R18/290195 NOSIG
2019/12/16 07:20 EVLA 160720Z AUTO 27012KT 240V300 9999 OVC022/// 06/02 Q1004
2019/12/16 07:20 EVVA 160720Z AUTO 28021G34KT 9999 OVC022 06/03 Q1000
2019/12/16 07:20 EYKA 160720Z 25019KT 9999 BKN022 05/01 Q1006 R08/290095
2019/12/16 07:20 EYPA 160720Z 28009G21KT 240V320 9999 BKN023 06/03 Q1005 R19/2///95
2019/12/16 07:20 EYSA 160720Z 25021KT 8000 -RA BKN012 BKN016 BKN022 04/02 Q1003 R14L/29//95 R14R/29//95 GRN TEMPO FEW012 BKN018 WHT
2019/12/16 07:20 EYVI 160720Z 23013KT 9999 BKN027 03/00 Q1007 R19/2///95 NOSIG
2019/12/16 06:50 EEKA 160650Z VRB02KT 9999 BCFG FEW011 SCT031 02/01 Q0993
2019/12/16 06:50 EEKE 160650Z 28004KT 230V320 9999 -RA SCT016 BKN022 OVC038 03/03 Q0993 R17/290195
2019/12/16 06:50 EEPU 160650Z 27005KT 9999 BKN006 03/03 Q0992
2019/12/16 07:20 EETN 160720Z 25002KT 9999 BKN014 OVC024 02/01 Q0993 R08/290195 NOSIG
2019/12/16 06:50 EETU 160650Z 20006KT 9999 OVC010 03/02 Q0992
   RIGA AIRPORT     EVRA               56 55N  023 58E   10   X     T          6 LV
   LIEPAJA INTL     EVLA        26406  56 31N  021 06E    4   X                8 LV
   VENTPILS         EVVA               57 21N  021 33E    6   X                8 LV
   KAUNAS           EYKA               54 54N  023 55E   77   X     T          6 LT
   PALANGA INTL     EYPA               55 55N  021 03E   10   X                6 LT
   SIAULIAI INTL    EYSA               55 54N  023 24E  135   X     T          6 LT
   VILNIUS INTL     EYVI        26730  54 38N  025 17E  197   X     T          6 LT
   KARDLA           EEKA        26116  58 59N  022 50E    4   X                8 EE
   KURESSAARE       EEKE               58 14N  022 31E    4   X                8 EE
   PARNU            EEPU               58 25N  024 28E   14   X                8 EE
   TALLINN          EETN        26038  59 24N  024 49E   40   X     T          8 EE
   TARTU            EETU               58 19N  026 41E   67   X                8 EE